sensor_id;sensor_type;location;lat;lon;timestamp;P1;durP1;ratioP1;P2;durP2;ratioP2
69795;SDS011;57073;45.650;9.612;2024-03-08T00:02:02;25.93;;;13.27;;
69795;SDS011;57073;45.650;9.612;2024-03-08T00:07:02;25.37;;;13.27;;
69795;SDS011;57073;45.650;9.612;2024-03-08T00:12:03;25.00;;;12.97;;
69795;SDS011;57073;45.650;9.612;2024-03-08T00:17:03;26.90;;;12.60;;
69795;SDS011;57073;45.650;9.612;2024-03-08T00:22:04;21.42;;;11.30;;
69795;SDS011;57073;45.650;9.612;2024-03-08T00:27:04;21.70;;;10.73;;
69795;SDS011;57073;45.650;9.612;2024-03-08T00:32:05;21.70;;;10.00;;
69795;SDS011;57073;45.650;9.612;2024-03-08T00:37:07;18.90;;;10.50;;
69795;SDS011;57073;45.650;9.612;2024-03-08T00:42:08;18.65;;;9.95;;
69795;SDS011;57073;45.650;9.612;2024-03-08T00:47:09;19.03;;;10.23;;
69795;SDS011;57073;45.650;9.612;2024-03-08T00:52:09;21.33;;;11.30;;
69795;SDS011;57073;45.650;9.612;2024-03-08T00:57:10;17.27;;;10.23;;
69795;SDS011;57073;45.650;9.612;2024-03-08T01:02:11;17.63;;;10.30;;
69795;SDS011;57073;45.650;9.612;2024-03-08T01:07:11;19.90;;;10.80;;
69795;SDS011;57073;45.650;9.612;2024-03-08T01:12:12;17.90;;;9.50;;
69795;SDS011;57073;45.650;9.612;2024-03-08T01:17:12;18.50;;;9.97;;
69795;SDS011;57073;45.650;9.612;2024-03-08T01:22:13;16.97;;;9.43;;
69795;SDS011;57073;45.650;9.612;2024-03-08T01:27:14;19.53;;;10.00;;
69795;SDS011;57073;45.650;9.612;2024-03-08T01:32:14;17.70;;;9.32;;
69795;SDS011;57073;45.650;9.612;2024-03-08T01:37:15;21.37;;;10.50;;
69795;SDS011;57073;45.650;9.612;2024-03-08T01:42:15;20.70;;;10.53;;
69795;SDS011;57073;45.650;9.612;2024-03-08T01:47:17;21.52;;;10.65;;
69795;SDS011;57073;45.650;9.612;2024-03-08T01:52:18;21.90;;;11.60;;
69795;SDS011;57073;45.650;9.612;2024-03-08T01:57:21;19.90;;;10.00;;
69795;SDS011;57073;45.650;9.612;2024-03-08T02:02:22;21.52;;;10.10;;
69795;SDS011;57073;45.650;9.612;2024-03-08T02:07:22;19.70;;;10.47;;
69795;SDS011;57073;45.650;9.612;2024-03-08T02:12:22;21.77;;;10.53;;
69795;SDS011;57073;45.650;9.612;2024-03-08T02:17:23;21.60;;;10.63;;
69795;SDS011;57073;45.650;9.612;2024-03-08T02:22:23;23.90;;;10.10;;
69795;SDS011;57073;45.650;9.612;2024-03-08T02:27:24;19.17;;;10.00;;
69795;SDS011;57073;45.650;9.612;2024-03-08T02:32:25;24.35;;;10.23;;
69795;SDS011;57073;45.650;9.612;2024-03-08T02:37:26;19.60;;;9.93;;
69795;SDS011;57073;45.650;9.612;2024-03-08T02:42:26;21.48;;;10.18;;
69795;SDS011;57073;45.650;9.612;2024-03-08T02:47:27;20.37;;;10.37;;
69795;SDS011;57073;45.650;9.612;2024-03-08T02:52:31;22.77;;;10.43;;
69795;SDS011;57073;45.650;9.612;2024-03-08T02:57:31;21.77;;;10.63;;
69795;SDS011;57073;45.650;9.612;2024-03-08T03:02:33;21.77;;;10.63;;
69795;SDS011;57073;45.650;9.612;2024-03-08T03:07:33;21.97;;;10.77;;
69795;SDS011;57073;45.650;9.612;2024-03-08T03:12:33;23.00;;;11.25;;
69795;SDS011;57073;45.650;9.612;2024-03-08T03:17:34;21.03;;;10.83;;
69795;SDS011;57073;45.650;9.612;2024-03-08T03:22:34;23.70;;;11.13;;
69795;SDS011;57073;45.650;9.612;2024-03-08T03:27:34;22.30;;;10.87;;
69795;SDS011;57073;45.650;9.612;2024-03-08T03:32:35;23.13;;;11.63;;
69795;SDS011;57073;45.650;9.612;2024-03-08T03:37:47;20.55;;;10.68;;
69795;SDS011;57073;45.650;9.612;2024-03-08T03:43:06;22.23;;;11.45;;
69795;SDS011;57073;45.650;9.612;2024-03-08T03:48:07;21.67;;;10.67;;
69795;SDS011;57073;45.650;9.612;2024-03-08T03:53:11;22.85;;;10.77;;
69795;SDS011;57073;45.650;9.612;2024-03-08T03:58:13;24.00;;;11.50;;
69795;SDS011;57073;45.650;9.612;2024-03-08T04:03:14;22.87;;;11.23;;
69795;SDS011;57073;45.650;9.612;2024-03-08T04:08:14;24.03;;;11.33;;
69795;SDS011;57073;45.650;9.612;2024-03-08T04:13:14;20.00;;;10.13;;
69795;SDS011;57073;45.650;9.612;2024-03-08T04:18:15;23.27;;;11.47;;
69795;SDS011;57073;45.650;9.612;2024-03-08T04:23:16;23.60;;;11.20;;
69795;SDS011;57073;45.650;9.612;2024-03-08T04:28:17;20.58;;;10.32;;
69795;SDS011;57073;45.650;9.612;2024-03-08T04:33:17;22.75;;;10.27;;
69795;SDS011;57073;45.650;9.612;2024-03-08T04:38:18;20.02;;;9.57;;
69795;SDS011;57073;45.650;9.612;2024-03-08T04:43:18;20.30;;;9.93;;
69795;SDS011;57073;45.650;9.612;2024-03-08T04:48:20;20.33;;;10.20;;
69795;SDS011;57073;45.650;9.612;2024-03-08T04:53:21;21.17;;;10.10;;
69795;SDS011;57073;45.650;9.612;2024-03-08T04:58:21;22.20;;;10.30;;
69795;SDS011;57073;45.650;9.612;2024-03-08T05:03:21;20.75;;;9.70;;
69795;SDS011;57073;45.650;9.612;2024-03-08T05:08:22;21.60;;;10.30;;
69795;SDS011;57073;45.650;9.612;2024-03-08T05:13:22;21.40;;;9.80;;
69795;SDS011;57073;45.650;9.612;2024-03-08T05:18:23;20.30;;;10.23;;
69795;SDS011;57073;45.650;9.612;2024-03-08T05:23:23;21.97;;;10.13;;
69795;SDS011;57073;45.650;9.612;2024-03-08T05:28:24;23.13;;;10.10;;
69795;SDS011;57073;45.650;9.612;2024-03-08T05:33:24;21.07;;;10.07;;
69795;SDS011;57073;45.650;9.612;2024-03-08T05:38:25;19.67;;;9.73;;
69795;SDS011;57073;45.650;9.612;2024-03-08T05:43:25;23.07;;;9.57;;
69795;SDS011;57073;45.650;9.612;2024-03-08T05:48:25;21.07;;;9.77;;
69795;SDS011;57073;45.650;9.612;2024-03-08T05:53:26;21.23;;;10.03;;
69795;SDS011;57073;45.650;9.612;2024-03-08T05:58:26;19.98;;;9.95;;
69795;SDS011;57073;45.650;9.612;2024-03-08T06:03:27;20.20;;;10.00;;
69795;SDS011;57073;45.650;9.612;2024-03-08T06:08:27;23.30;;;10.90;;
69795;SDS011;57073;45.650;9.612;2024-03-08T06:13:29;22.33;;;10.53;;
69795;SDS011;57073;45.650;9.612;2024-03-08T06:18:31;20.50;;;9.63;;
69795;SDS011;57073;45.650;9.612;2024-03-08T06:23:32;19.43;;;9.67;;
69795;SDS011;57073;45.650;9.612;2024-03-08T06:28:32;20.40;;;10.38;;
69795;SDS011;57073;45.650;9.612;2024-03-08T06:33:34;17.83;;;9.73;;
69795;SDS011;57073;45.650;9.612;2024-03-08T06:38:35;27.00;;;10.35;;
69795;SDS011;57073;45.650;9.612;2024-03-08T06:43:35;21.57;;;10.27;;
69795;SDS011;57073;45.650;9.612;2024-03-08T06:48:36;21.13;;;9.87;;
69795;SDS011;57073;45.650;9.612;2024-03-08T06:53:37;20.37;;;10.40;;
69795;SDS011;57073;45.650;9.612;2024-03-08T06:58:38;18.58;;;9.40;;
69795;SDS011;57073;45.650;9.612;2024-03-08T07:03:39;22.37;;;10.03;;
69795;SDS011;57073;45.650;9.612;2024-03-08T07:08:44;17.83;;;9.37;;
69795;SDS011;57073;45.650;9.612;2024-03-08T07:13:45;17.17;;;9.38;;
69795;SDS011;57073;45.650;9.612;2024-03-08T07:18:46;14.87;;;8.73;;
69795;SDS011;57073;45.650;9.612;2024-03-08T07:23:46;16.70;;;8.57;;
69795;SDS011;57073;45.650;9.612;2024-03-08T07:28:53;18.80;;;9.02;;
69795;SDS011;57073;45.650;9.612;2024-03-08T07:33:55;20.60;;;9.93;;
69795;SDS011;57073;45.650;9.612;2024-03-08T07:38:55;17.30;;;9.32;;
69795;SDS011;57073;45.650;9.612;2024-03-08T07:43:55;16.10;;;8.47;;
69795;SDS011;57073;45.650;9.612;2024-03-08T07:48:56;15.03;;;8.57;;
69795;SDS011;57073;45.650;9.612;2024-03-08T07:53:56;16.00;;;8.90;;
69795;SDS011;57073;45.650;9.612;2024-03-08T07:58:57;14.90;;;8.52;;
69795;SDS011;57073;45.650;9.612;2024-03-08T08:03:57;15.77;;;8.10;;
69795;SDS011;57073;45.650;9.612;2024-03-08T08:08:57;13.73;;;7.27;;
69795;SDS011;57073;45.650;9.612;2024-03-08T08:13:58;16.30;;;8.20;;
69795;SDS011;57073;45.650;9.612;2024-03-08T08:18:59;13.82;;;7.57;;
69795;SDS011;57073;45.650;9.612;2024-03-08T08:23:59;15.43;;;8.07;;
69795;SDS011;57073;45.650;9.612;2024-03-08T08:29:00;17.70;;;8.00;;
69795;SDS011;57073;45.650;9.612;2024-03-08T08:34:00;16.10;;;8.80;;
69795;SDS011;57073;45.650;9.612;2024-03-08T08:39:03;16.45;;;7.40;;
69795;SDS011;57073;45.650;9.612;2024-03-08T08:44:03;15.43;;;7.43;;
69795;SDS011;57073;45.650;9.612;2024-03-08T08:49:04;13.77;;;7.07;;
69795;SDS011;57073;45.650;9.612;2024-03-08T08:54:06;15.73;;;7.85;;
69795;SDS011;57073;45.650;9.612;2024-03-08T08:59:06;12.97;;;7.33;;
69795;SDS011;57073;45.650;9.612;2024-03-08T09:04:07;14.13;;;7.17;;
69795;SDS011;57073;45.650;9.612;2024-03-08T09:09:08;15.75;;;7.38;;
69795;SDS011;57073;45.650;9.612;2024-03-08T09:14:09;14.00;;;6.90;;
69795;SDS011;57073;45.650;9.612;2024-03-08T09:19:12;12.63;;;6.88;;
69795;SDS011;57073;45.650;9.612;2024-03-08T09:24:12;10.77;;;5.77;;
69795;SDS011;57073;45.650;9.612;2024-03-08T09:29:12;12.88;;;6.63;;
69795;SDS011;57073;45.650;9.612;2024-03-08T09:34:12;10.15;;;5.65;;
69795;SDS011;57073;45.650;9.612;2024-03-08T09:39:13;11.20;;;6.00;;
69795;SDS011;57073;45.650;9.612;2024-03-08T09:44:16;14.90;;;6.47;;
69795;SDS011;57073;45.650;9.612;2024-03-08T09:49:17;14.57;;;6.73;;
69795;SDS011;57073;45.650;9.612;2024-03-08T09:54:17;11.83;;;6.10;;
69795;SDS011;57073;45.650;9.612;2024-03-08T09:59:20;14.25;;;6.72;;
69795;SDS011;57073;45.650;9.612;2024-03-08T10:04:23;12.37;;;5.80;;
69795;SDS011;57073;45.650;9.612;2024-03-08T10:09:24;9.87;;;5.37;;
69795;SDS011;57073;45.650;9.612;2024-03-08T10:14:26;10.73;;;5.93;;
69795;SDS011;57073;45.650;9.612;2024-03-08T10:19:29;12.32;;;6.25;;
69795;SDS011;57073;45.650;9.612;2024-03-08T10:24:31;12.13;;;6.33;;
69795;SDS011;57073;45.650;9.612;2024-03-08T10:29:33;10.95;;;6.13;;
69795;SDS011;57073;45.650;9.612;2024-03-08T10:34:34;12.30;;;6.70;;
69795;SDS011;57073;45.650;9.612;2024-03-08T10:39:36;13.57;;;6.30;;
69795;SDS011;57073;45.650;9.612;2024-03-08T10:44:40;13.55;;;7.07;;
69795;SDS011;57073;45.650;9.612;2024-03-08T10:54:54;12.63;;;6.63;;
69795;SDS011;57073;45.650;9.612;2024-03-08T10:59:56;10.60;;;6.13;;
69795;SDS011;57073;45.650;9.612;2024-03-08T11:04:58;13.80;;;5.83;;
69795;SDS011;57073;45.650;9.612;2024-03-08T11:09:58;13.13;;;6.20;;
69795;SDS011;57073;45.650;9.612;2024-03-08T11:14:59;11.60;;;6.68;;
69795;SDS011;57073;45.650;9.612;2024-03-08T11:20:01;12.03;;;6.43;;
69795;SDS011;57073;45.650;9.612;2024-03-08T11:25:05;11.80;;;6.15;;
69795;SDS011;57073;45.650;9.612;2024-03-08T11:30:09;13.50;;;6.68;;
69795;SDS011;57073;45.650;9.612;2024-03-08T11:35:18;13.20;;;6.63;;
69795;SDS011;57073;45.650;9.612;2024-03-08T11:40:20;14.82;;;6.75;;
69795;SDS011;57073;45.650;9.612;2024-03-08T11:45:21;12.80;;;6.60;;
69795;SDS011;57073;45.650;9.612;2024-03-08T11:50:21;13.00;;;6.73;;
69795;SDS011;57073;45.650;9.612;2024-03-08T11:55:23;15.15;;;7.22;;
69795;SDS011;57073;45.650;9.612;2024-03-08T12:00:24;15.75;;;7.18;;
69795;SDS011;57073;45.650;9.612;2024-03-08T12:05:25;12.73;;;6.83;;
69795;SDS011;57073;45.650;9.612;2024-03-08T12:10:26;11.47;;;6.60;;
69795;SDS011;57073;45.650;9.612;2024-03-08T12:15:27;13.00;;;6.90;;
69795;SDS011;57073;45.650;9.612;2024-03-08T12:20:29;15.60;;;7.33;;
69795;SDS011;57073;45.650;9.612;2024-03-08T12:25:32;15.55;;;7.85;;
69795;SDS011;57073;45.650;9.612;2024-03-08T12:30:37;16.60;;;8.55;;
69795;SDS011;57073;45.650;9.612;2024-03-08T12:35:52;13.60;;;7.43;;
69795;SDS011;57073;45.650;9.612;2024-03-08T12:41:00;15.32;;;7.47;;
69795;SDS011;57073;45.650;9.612;2024-03-08T12:46:01;15.05;;;7.60;;
69795;SDS011;57073;45.650;9.612;2024-03-08T12:51:01;16.33;;;7.73;;
69795;SDS011;57073;45.650;9.612;2024-03-08T12:56:02;16.47;;;8.10;;
69795;SDS011;57073;45.650;9.612;2024-03-08T13:01:05;16.45;;;7.57;;
69795;SDS011;57073;45.650;9.612;2024-03-08T13:06:07;12.13;;;6.53;;
69795;SDS011;57073;45.650;9.612;2024-03-08T13:11:08;13.03;;;7.30;;
69795;SDS011;57073;45.650;9.612;2024-03-08T13:16:11;15.20;;;7.27;;
69795;SDS011;57073;45.650;9.612;2024-03-08T13:21:15;15.38;;;6.88;;
69795;SDS011;57073;45.650;9.612;2024-03-08T13:26:18;15.77;;;7.67;;
69795;SDS011;57073;45.650;9.612;2024-03-08T13:31:19;13.07;;;7.03;;
69795;SDS011;57073;45.650;9.612;2024-03-08T13:36:20;13.40;;;7.20;;
69795;SDS011;57073;45.650;9.612;2024-03-08T13:41:21;13.87;;;7.33;;
69795;SDS011;57073;45.650;9.612;2024-03-08T13:46:24;12.25;;;6.82;;
69795;SDS011;57073;45.650;9.612;2024-03-08T13:51:26;12.48;;;6.85;;
69795;SDS011;57073;45.650;9.612;2024-03-08T13:56:27;16.37;;;7.37;;
69795;SDS011;57073;45.650;9.612;2024-03-08T14:01:29;12.33;;;7.00;;
69795;SDS011;57073;45.650;9.612;2024-03-08T14:06:30;15.07;;;7.40;;
69795;SDS011;57073;45.650;9.612;2024-03-08T14:11:30;11.60;;;6.75;;
69795;SDS011;57073;45.650;9.612;2024-03-08T14:16:30;13.30;;;6.90;;
69795;SDS011;57073;45.650;9.612;2024-03-08T14:21:31;14.90;;;6.87;;
69795;SDS011;57073;45.650;9.612;2024-03-08T14:26:32;11.80;;;6.63;;
69795;SDS011;57073;45.650;9.612;2024-03-08T14:31:32;12.30;;;6.87;;
69795;SDS011;57073;45.650;9.612;2024-03-08T14:36:33;10.87;;;6.73;;
69795;SDS011;57073;45.650;9.612;2024-03-08T14:41:33;14.43;;;7.33;;
69795;SDS011;57073;45.650;9.612;2024-03-08T14:46:33;13.67;;;6.70;;
69795;SDS011;57073;45.650;9.612;2024-03-08T14:51:34;12.87;;;7.10;;
69795;SDS011;57073;45.650;9.612;2024-03-08T14:56:35;12.82;;;6.97;;
69795;SDS011;57073;45.650;9.612;2024-03-08T15:01:35;12.53;;;7.17;;
69795;SDS011;57073;45.650;9.612;2024-03-08T15:06:39;11.60;;;6.80;;
69795;SDS011;57073;45.650;9.612;2024-03-08T15:11:40;10.85;;;6.57;;
69795;SDS011;57073;45.650;9.612;2024-03-08T15:16:42;12.10;;;6.40;;
69795;SDS011;57073;45.650;9.612;2024-03-08T15:21:43;12.13;;;6.90;;
69795;SDS011;57073;45.650;9.612;2024-03-08T15:26:45;13.82;;;7.07;;
69795;SDS011;57073;45.650;9.612;2024-03-08T15:31:46;12.53;;;7.30;;
69795;SDS011;57073;45.650;9.612;2024-03-08T15:36:46;13.90;;;7.50;;
69795;SDS011;57073;45.650;9.612;2024-03-08T15:41:49;17.52;;;7.45;;
69795;SDS011;57073;45.650;9.612;2024-03-08T15:46:50;15.40;;;6.37;;
69795;SDS011;57073;45.650;9.612;2024-03-08T15:51:50;15.43;;;6.97;;
69795;SDS011;57073;45.650;9.612;2024-03-08T15:56:50;14.02;;;6.88;;
69795;SDS011;57073;45.650;9.612;2024-03-08T16:01:51;13.03;;;7.13;;
69795;SDS011;57073;45.650;9.612;2024-03-08T16:06:51;11.00;;;6.40;;
69795;SDS011;57073;45.650;9.612;2024-03-08T16:11:52;14.53;;;6.90;;
69795;SDS011;57073;45.650;9.612;2024-03-08T16:16:53;11.88;;;6.40;;
69795;SDS011;57073;45.650;9.612;2024-03-08T16:21:54;12.68;;;6.88;;
69795;SDS011;57073;45.650;9.612;2024-03-08T16:26:54;12.80;;;7.35;;
69795;SDS011;57073;45.650;9.612;2024-03-08T16:31:54;11.77;;;6.20;;
69795;SDS011;57073;45.650;9.612;2024-03-08T16:36:55;15.52;;;7.00;;
69795;SDS011;57073;45.650;9.612;2024-03-08T16:41:55;11.88;;;6.43;;
69795;SDS011;57073;45.650;9.612;2024-03-08T16:46:59;15.70;;;7.40;;
69795;SDS011;57073;45.650;9.612;2024-03-08T16:51:59;15.75;;;7.47;;
69795;SDS011;57073;45.650;9.612;2024-03-08T16:57:00;15.03;;;6.93;;
69795;SDS011;57073;45.650;9.612;2024-03-08T17:02:03;11.90;;;6.63;;
69795;SDS011;57073;45.650;9.612;2024-03-08T17:07:05;14.23;;;7.43;;
69795;SDS011;57073;45.650;9.612;2024-03-08T17:12:06;12.67;;;6.93;;
69795;SDS011;57073;45.650;9.612;2024-03-08T17:17:10;12.55;;;6.85;;
69795;SDS011;57073;45.650;9.612;2024-03-08T17:22:12;13.35;;;7.25;;
69795;SDS011;57073;45.650;9.612;2024-03-08T17:27:12;12.33;;;6.27;;
69795;SDS011;57073;45.650;9.612;2024-03-08T17:32:15;12.47;;;6.27;;
69795;SDS011;57073;45.650;9.612;2024-03-08T17:37:16;16.33;;;6.80;;
69795;SDS011;57073;45.650;9.612;2024-03-08T17:42:17;14.70;;;7.43;;
69795;SDS011;57073;45.650;9.612;2024-03-08T17:47:18;13.82;;;6.82;;
69795;SDS011;57073;45.650;9.612;2024-03-08T17:52:19;11.95;;;6.80;;
69795;SDS011;57073;45.650;9.612;2024-03-08T17:57:21;13.73;;;7.20;;
69795;SDS011;57073;45.650;9.612;2024-03-08T18:02:23;15.88;;;8.02;;
69795;SDS011;57073;45.650;9.612;2024-03-08T18:07:24;15.43;;;7.27;;
69795;SDS011;57073;45.650;9.612;2024-03-08T18:12:24;11.70;;;7.15;;
69795;SDS011;57073;45.650;9.612;2024-03-08T18:17:24;12.70;;;7.03;;
69795;SDS011;57073;45.650;9.612;2024-03-08T18:22:28;16.30;;;8.20;;
69795;SDS011;57073;45.650;9.612;2024-03-08T18:27:28;13.10;;;7.57;;
69795;SDS011;57073;45.650;9.612;2024-03-08T18:32:28;16.07;;;7.07;;
69795;SDS011;57073;45.650;9.612;2024-03-08T18:37:29;15.25;;;7.40;;
69795;SDS011;57073;45.650;9.612;2024-03-08T18:42:29;14.27;;;7.37;;
69795;SDS011;57073;45.650;9.612;2024-03-08T18:47:31;12.70;;;7.25;;
69795;SDS011;57073;45.650;9.612;2024-03-08T18:52:31;13.30;;;7.37;;
69795;SDS011;57073;45.650;9.612;2024-03-08T18:57:32;14.90;;;7.53;;
69795;SDS011;57073;45.650;9.612;2024-03-08T19:02:32;13.65;;;7.68;;
69795;SDS011;57073;45.650;9.612;2024-03-08T19:07:33;16.97;;;8.20;;
69795;SDS011;57073;45.650;9.612;2024-03-08T19:12:35;13.45;;;7.72;;
69795;SDS011;57073;45.650;9.612;2024-03-08T19:17:36;15.52;;;8.38;;
69795;SDS011;57073;45.650;9.612;2024-03-08T19:22:36;15.10;;;8.70;;
69795;SDS011;57073;45.650;9.612;2024-03-08T19:27:37;23.48;;;11.82;;
69795;SDS011;57073;45.650;9.612;2024-03-08T19:32:39;19.87;;;10.80;;
69795;SDS011;57073;45.650;9.612;2024-03-08T19:37:40;15.05;;;7.85;;
69795;SDS011;57073;45.650;9.612;2024-03-08T19:42:43;18.73;;;8.40;;
69795;SDS011;57073;45.650;9.612;2024-03-08T19:47:45;17.25;;;10.05;;
69795;SDS011;57073;45.650;9.612;2024-03-08T19:52:46;19.10;;;9.20;;
69795;SDS011;57073;45.650;9.612;2024-03-08T19:57:48;16.85;;;9.13;;
69795;SDS011;57073;45.650;9.612;2024-03-08T20:02:51;15.97;;;8.77;;
69795;SDS011;57073;45.650;9.612;2024-03-08T20:07:54;15.67;;;8.30;;
69795;SDS011;57073;45.650;9.612;2024-03-08T20:12:56;16.10;;;9.50;;
69795;SDS011;57073;45.650;9.612;2024-03-08T20:17:59;18.38;;;9.98;;
69795;SDS011;57073;45.650;9.612;2024-03-08T20:23:02;18.15;;;9.52;;
69795;SDS011;57073;45.650;9.612;2024-03-08T20:28:03;19.00;;;9.80;;
69795;SDS011;57073;45.650;9.612;2024-03-08T20:33:05;17.05;;;9.52;;
69795;SDS011;57073;45.650;9.612;2024-03-08T20:38:08;19.73;;;10.40;;
69795;SDS011;57073;45.650;9.612;2024-03-08T20:43:20;21.40;;;11.02;;
69795;SDS011;57073;45.650;9.612;2024-03-08T20:48:21;19.90;;;10.77;;
69795;SDS011;57073;45.650;9.612;2024-03-08T20:53:21;21.57;;;10.43;;
69795;SDS011;57073;45.650;9.612;2024-03-08T20:58:22;22.87;;;11.77;;
69795;SDS011;57073;45.650;9.612;2024-03-08T21:03:23;20.90;;;11.53;;
69795;SDS011;57073;45.650;9.612;2024-03-08T21:08:24;24.23;;;12.15;;
69795;SDS011;57073;45.650;9.612;2024-03-08T21:13:26;23.23;;;11.83;;
69795;SDS011;57073;45.650;9.612;2024-03-08T21:18:27;22.95;;;12.50;;
69795;SDS011;57073;45.650;9.612;2024-03-08T21:23:28;24.73;;;12.17;;
69795;SDS011;57073;45.650;9.612;2024-03-08T21:28:29;26.03;;;11.53;;
69795;SDS011;57073;45.650;9.612;2024-03-08T21:33:29;21.10;;;11.63;;
69795;SDS011;57073;45.650;9.612;2024-03-08T21:38:29;23.45;;;11.32;;
69795;SDS011;57073;45.650;9.612;2024-03-08T21:43:29;23.65;;;12.00;;
69795;SDS011;57073;45.650;9.612;2024-03-08T21:48:34;27.02;;;13.13;;
69795;SDS011;57073;45.650;9.612;2024-03-08T21:53:34;25.67;;;13.07;;
69795;SDS011;57073;45.650;9.612;2024-03-08T21:58:36;22.83;;;12.60;;
69795;SDS011;57073;45.650;9.612;2024-03-08T22:03:37;26.03;;;13.13;;
69795;SDS011;57073;45.650;9.612;2024-03-08T22:08:38;24.55;;;11.90;;
69795;SDS011;57073;45.650;9.612;2024-03-08T22:13:40;22.25;;;12.18;;
69795;SDS011;57073;45.650;9.612;2024-03-08T22:18:41;19.40;;;10.20;;
69795;SDS011;57073;45.650;9.612;2024-03-08T22:23:41;18.67;;;9.40;;
69795;SDS011;57073;45.650;9.612;2024-03-08T22:28:42;19.00;;;9.83;;
69795;SDS011;57073;45.650;9.612;2024-03-08T22:33:43;20.55;;;10.88;;
69795;SDS011;57073;45.650;9.612;2024-03-08T22:38:43;20.00;;;10.17;;
69795;SDS011;57073;45.650;9.612;2024-03-08T22:43:44;18.40;;;9.97;;
69795;SDS011;57073;45.650;9.612;2024-03-08T22:48:44;17.83;;;9.03;;
69795;SDS011;57073;45.650;9.612;2024-03-08T22:53:44;17.10;;;9.13;;
69795;SDS011;57073;45.650;9.612;2024-03-08T22:58:45;13.77;;;7.53;;
69795;SDS011;57073;45.650;9.612;2024-03-08T23:03:45;13.90;;;7.82;;
69795;SDS011;57073;45.650;9.612;2024-03-08T23:08:46;12.60;;;6.17;;
69795;SDS011;57073;45.650;9.612;2024-03-08T23:13:46;9.47;;;5.33;;
69795;SDS011;57073;45.650;9.612;2024-03-08T23:18:46;9.37;;;4.70;;
69795;SDS011;57073;45.650;9.612;2024-03-08T23:23:48;9.27;;;4.28;;
69795;SDS011;57073;45.650;9.612;2024-03-08T23:28:50;6.57;;;3.40;;
69795;SDS011;57073;45.650;9.612;2024-03-08T23:33:50;7.00;;;3.92;;
69795;SDS011;57073;45.650;9.612;2024-03-08T23:38:50;5.90;;;3.73;;
69795;SDS011;57073;45.650;9.612;2024-03-08T23:43:51;8.87;;;3.97;;
69795;SDS011;57073;45.650;9.612;2024-03-08T23:48:52;7.50;;;4.30;;
69795;SDS011;57073;45.650;9.612;2024-03-08T23:53:52;8.43;;;4.93;;
69795;SDS011;57073;45.650;9.612;2024-03-08T23:58:52;13.30;;;7.05;;
